Time;durP1;ratioP1;P1;durP2;ratioP2;P2;SDS_P1;SDS_P2;PMS_P1;PMS_P2;Temp;Humidity;BMP_temperature;BMP_pressure;BME280_temperature;BME280_humidity;BME280_pressure;Samples;Min_cycle;Max_cycle;Signal;HPM_P1;HPM_P2
2021/10/24 00:01:01;;;;;;;;;8.33;8.00;;;;;18.26;56.98;99779.06;4949455;28;102243;-87
2021/10/24 00:03:29;;;;;;;;;10.00;9.33;;;;;18.28;57.06;99790.66;4920603;28;102650;-87
2021/10/24 00:05:57;;;;;;;;;11.00;11.00;;;;;18.29;57.29;99790.41;4928698;28;105536;-86
2021/10/24 00:08:24;;;;;;;;;9.00;8.00;;;;;18.31;56.43;99787.47;4949906;28;109210;-87
2021/10/24 00:10:51;;;;;;;;;9.33;8.67;;;;;18.33;57.23;99788.06;4948384;28;103909;-87
2021/10/24 00:13:18;;;;;;;;;11.67;10.67;;;;;18.35;56.90;99790.59;4946829;28;102390;-87
2021/10/24 00:15:45;;;;;;;;;10.00;9.00;;;;;18.36;56.43;99782.16;4955468;28;103811;-87
2021/10/24 00:18:13;;;;;;;;;11.00;9.33;;;;;18.39;57.00;99798.16;4953190;28;104108;-87
2021/10/24 00:20:40;;;;;;;;;8.00;8.00;;;;;18.40;56.89;99791.63;4957257;28;102128;-87
2021/10/24 00:23:07;;;;;;;;;8.00;8.00;;;;;18.41;56.75;99796.03;4952855;28;102561;-86
2021/10/24 00:25:34;;;;;;;;;6.00;6.00;;;;;18.42;56.78;99794.94;4951459;28;102592;-87
2021/10/24 00:28:02;;;;;;;;;9.00;8.00;;;;;18.44;56.44;99789.25;4947370;28;105630;-87
2021/10/24 00:30:46;;;;;;;;;9.67;8.00;;;;;18.44;56.31;99787.38;4956964;28;102544;-87
2021/10/24 00:33:13;;;;;;;;;7.67;7.67;;;;;18.46;56.30;99807.13;4949498;28;102626;-87
2021/10/24 00:35:40;;;;;;;;;9.00;7.67;;;;;18.48;56.39;99802.28;4947170;28;102514;-86
2021/10/24 00:38:07;;;;;;;;;7.00;7.00;;;;;18.49;56.41;99797.66;4945771;28;104109;-86
2021/10/24 00:40:34;;;;;;;;;9.33;8.00;;;;;18.50;56.25;99791.97;4954674;28;102650;-87
2021/10/24 00:43:02;;;;;;;;;8.67;7.33;;;;;18.51;56.15;99779.06;4957061;28;102509;-87
2021/10/24 00:45:29;;;;;;;;;10.00;9.00;;;;;18.53;56.29;99798.91;4954187;28;103077;-86
2021/10/24 00:47:55;;;;;;;;;8.00;7.00;;;;;18.54;56.04;99797.84;4945426;28;104008;-86
2021/10/24 00:50:23;;;;;;;;;8.00;8.00;;;;;18.53;55.98;99799.75;4954026;28;102400;-86
2021/10/24 00:52:50;;;;;;;;;8.00;7.00;;;;;18.56;56.46;99823.94;4954829;28;102443;-86
2021/10/24 00:55:17;;;;;;;;;8.00;7.33;;;;;18.58;56.26;99804.56;4952021;28;103592;-86
2021/10/24 00:57:44;;;;;;;;;8.33;7.00;;;;;18.60;55.90;99799.69;4927179;28;104767;-86
2021/10/24 01:00:12;;;;;;;;;9.00;7.00;;;;;18.60;56.27;99810.63;4945488;28;102641;-84
2021/10/24 01:02:39;;;;;;;;;8.67;7.00;;;;;18.61;56.10;99813.16;4887838;28;102693;-85
2021/10/24 01:05:07;;;;;;;;;6.33;5.00;;;;;18.62;55.75;99811.28;4872745;28;107525;-85
2021/10/24 01:07:36;;;;;;;;;7.00;7.00;;;;;18.63;56.01;99807.47;4931501;28;104455;-87
2021/10/24 01:10:04;;;;;;;;;7.00;6.00;;;;;18.61;55.42;99807.69;4903592;28;103875;-87
2021/10/24 01:12:31;;;;;;;;;8.33;8.33;;;;;18.65;56.01;99819.88;4935226;28;102296;-87
2021/10/24 01:14:58;;;;;;;;;7.33;6.00;;;;;18.65;55.94;99819.88;4940045;28;102726;-86
2021/10/24 01:17:25;;;;;;;;;6.67;6.33;;;;;18.66;55.55;99821.56;4947720;28;109017;-87
2021/10/24 01:19:52;;;;;;;;;7.33;7.33;;;;;18.67;55.78;99811.44;4942391;28;102483;-87
2021/10/24 01:22:20;;;;;;;;;8.00;6.00;;;;;18.69;55.60;99809.28;4947584;28;103621;-86
2021/10/24 01:24:47;;;;;;;;;7.33;6.00;;;;;18.68;55.85;99808.50;4947666;28;102569;-87
2021/10/24 01:27:14;;;;;;;;;7.00;7.00;;;;;18.71;55.88;99818.16;4950641;28;111385;-87
2021/10/24 01:29:41;;;;;;;;;5.67;5.33;;;;;18.71;55.46;99824.47;4940117;28;102606;-85
2021/10/24 01:32:08;;;;;;;;;6.00;5.67;;;;;18.73;55.71;99815.19;4950184;28;102604;-85
2021/10/24 01:34:47;;;;;;;;;8.00;7.00;;;;;18.75;55.75;99815.78;4952759;28;102638;-86
2021/10/24 01:37:15;;;;;;;;;8.00;6.00;;;;;18.75;55.64;99818.53;4954972;28;104267;-86
2021/10/24 01:39:42;;;;;;;;;5.67;5.67;;;;;18.75;55.62;99818.53;4955590;28;102210;-85
2021/10/24 01:42:09;;;;;;;;;5.00;4.00;;;;;18.76;55.35;99820.22;4950310;28;103033;-85
2021/10/24 01:44:37;;;;;;;;;6.67;6.00;;;;;18.76;55.53;99820.22;4947808;28;102538;-85
2021/10/24 01:47:04;;;;;;;;;7.33;6.00;;;;;18.76;55.39;99820.22;4941961;28;104502;-85
2021/10/24 01:49:32;;;;;;;;;6.67;5.33;;;;;18.77;54.90;99821.91;4946137;28;102626;-86
2021/10/24 01:52:01;;;;;;;;;6.67;5.67;;;;;18.78;55.17;99823.59;4939138;28;102448;-85
2021/10/24 01:54:28;;;;;;;;;6.33;5.67;;;;;18.78;55.18;99835.34;4959626;28;102515;-85
2021/10/24 01:56:55;;;;;;;;;7.00;6.00;;;;;18.78;54.98;99826.31;4948018;28;110212;-85
2021/10/24 01:59:22;;;;;;;;;6.00;6.00;;;;;18.78;55.06;99818.09;4947046;28;102590;-86
2021/10/24 02:01:49;;;;;;;;;8.00;6.00;;;;;18.79;55.07;99819.75;4943144;28;103450;-86
2021/10/24 02:04:16;;;;;;;;;6.67;5.00;;;;;18.79;55.03;99825.22;4955523;28;102738;-86
2021/10/24 02:06:43;;;;;;;;;6.33;5.67;;;;;18.80;55.08;99832.41;4956574;28;104081;-86
2021/10/24 02:09:10;;;;;;;;;5.00;5.00;;;;;18.80;54.84;99826.91;4960001;28;105231;-86
2021/10/24 02:11:37;;;;;;;;;5.00;5.00;;;;;18.81;54.75;99828.59;4954944;28;104540;-86
2021/10/24 02:14:04;;;;;;;;;6.33;5.00;;;;;18.80;54.75;99821.44;4961177;28;102226;-86
2021/10/24 02:16:31;;;;;;;;;6.00;6.00;;;;;18.81;55.00;99823.97;4947778;28;104442;-86
2021/10/24 02:18:58;;;;;;;;;6.00;5.00;;;;;18.82;54.65;99839.34;4955563;28;102618;-86
2021/10/24 02:21:25;;;;;;;;;6.00;5.00;;;;;18.82;54.50;99833.88;4943007;28;102934;-86
2021/10/24 02:23:53;;;;;;;;;5.33;5.33;;;;;18.82;54.73;99830.28;4956253;28;102652;-86
2021/10/24 02:26:19;;;;;;;;;6.67;5.00;;;;;18.83;54.83;99826.47;4952662;28;104293;-86
2021/10/24 02:28:46;;;;;;;;;6.67;5.33;;;;;18.82;54.52;99827.56;4953016;28;102358;-86
2021/10/24 02:31:13;;;;;;;;;7.33;6.67;;;;;18.82;54.47;99822.91;4944885;28;102399;-86
2021/10/24 02:33:40;;;;;;;;;7.00;7.00;;;;;18.82;54.21;99822.91;4947501;28;104087;-86
2021/10/24 02:36:07;;;;;;;;;5.00;4.00;;;;;18.82;54.52;99827.56;4948043;28;104067;-86
2021/10/24 02:38:34;;;;;;;;;5.00;5.00;;;;;18.83;54.41;99826.47;4943773;28;102581;-86
2021/10/24 02:41:01;;;;;;;;;6.33;5.00;;;;;18.82;54.45;99825.66;4951417;28;102383;-86
2021/10/24 02:43:28;;;;;;;;;5.33;5.33;;;;;18.83;54.67;99831.94;4955625;28;102419;-86
2021/10/24 02:45:55;;;;;;;;;5.33;5.00;;;;;18.84;54.53;99839.09;4950381;28;104101;-86
2021/10/24 02:48:22;;;;;;;;;5.00;4.33;;;;;18.84;54.54;99839.94;4954749;28;103755;-86
2021/10/24 02:50:49;;;;;;;;;5.33;5.33;;;;;18.84;54.33;99829.00;4949060;28;102486;-86
2021/10/24 02:53:16;;;;;;;;;5.67;5.00;;;;;18.84;54.10;99829.00;4955159;28;102610;-86
2021/10/24 02:55:43;;;;;;;;;4.67;4.00;;;;;18.84;54.03;99826.25;4951720;28;104306;-86
2021/10/24 02:58:10;;;;;;;;;6.33;6.00;;;;;18.84;54.03;99837.22;4953061;28;102491;-86
2021/10/24 03:00:37;;;;;;;;;5.00;5.00;;;;;18.84;54.01;99829.00;4949335;28;104421;-86
2021/10/24 03:03:04;;;;;;;;;5.00;4.33;;;;;18.84;53.84;99831.72;4951928;28;102647;-87
2021/10/24 03:05:31;;;;;;;;;5.00;5.00;;;;;18.84;54.30;99829.00;4947661;28;104067;-87
2021/10/24 03:07:58;;;;;;;;;4.33;4.33;;;;;18.84;54.22;99836.38;4948440;28;102449;-86
2021/10/24 03:10:25;;;;;;;;;7.00;5.33;;;;;18.84;53.65;99844.59;4954629;28;102389;-86
2021/10/24 03:12:52;;;;;;;;;7.00;6.00;;;;;18.84;53.85;99833.63;4949850;28;102369;-86
2021/10/24 03:15:19;;;;;;;;;7.00;6.00;;;;;18.84;53.72;99850.91;4944439;28;104229;-86
2021/10/24 03:17:46;;;;;;;;;5.00;4.67;;;;;18.85;53.61;99851.75;4943844;28;102392;-86
2021/10/24 03:20:13;;;;;;;;;5.00;4.33;;;;;18.84;53.79;99856.41;4945775;28;102630;-86
2021/10/24 03:22:40;;;;;;;;;6.00;5.33;;;;;18.85;53.81;99854.50;4947623;28;102529;-86
2021/10/24 03:25:07;;;;;;;;;4.00;4.00;;;;;18.87;53.64;99849.63;4950919;28;104444;-86
2021/10/24 03:27:34;;;;;;;;;5.33;4.00;;;;;18.84;53.23;99852.81;4946267;28;102612;-86
2021/10/24 03:30:01;;;;;;;;;4.00;4.00;;;;;18.85;53.76;99847.13;4941316;28;103198;-87
2021/10/24 03:32:28;;;;;;;;;5.33;4.00;;;;;18.84;53.74;99861.03;4958792;28;102985;-86
2021/10/24 03:34:55;;;;;;;;;5.00;5.00;;;;;18.84;53.45;99867.34;4934168;28;104377;-86
2021/10/24 03:37:22;;;;;;;;;5.33;4.33;;;;;18.84;53.40;99863.78;4951299;28;102433;-86
2021/10/24 03:39:51;;;;;;;;;5.00;4.00;;;;;18.84;53.31;99870.09;4945561;28;102321;-86
2021/10/24 03:42:17;;;;;;;;;5.33;5.00;;;;;18.84;53.68;99882.97;4951973;28;103164;-86
2021/10/24 03:44:44;;;;;;;;;8.00;5.00;;;;;18.82;53.33;99872.25;4943575;28;104120;-86
2021/10/24 03:47:11;;;;;;;;;6.00;5.00;;;;;18.82;53.04;99876.88;4939761;28;105107;-86
2021/10/24 03:49:40;;;;;;;;;6.00;6.00;;;;;18.83;53.50;99870.31;4948349;28;102248;-87
2021/10/24 03:52:06;;;;;;;;;6.00;5.00;;;;;18.82;53.34;99887.84;4947666;28;102714;-86
2021/10/24 03:54:33;;;;;;;;;5.00;5.00;;;;;18.82;53.51;99879.63;4934990;28;104306;-86
2021/10/24 03:57:01;;;;;;;;;5.00;5.00;;;;;18.82;53.60;99880.47;4948776;28;102696;-86
2021/10/24 03:59:28;;;;;;;;;4.00;4.00;;;;;18.81;53.26;99883.41;4951170;28;102229;-86
2021/10/24 04:01:54;;;;;;;;;4.00;4.00;;;;;18.80;53.25;99885.31;4945997;28;102243;-86
2021/10/24 04:04:22;;;;;;;;;5.00;5.00;;;;;18.81;52.97;99900.69;4946751;28;104236;-86
2021/10/24 04:06:48;;;;;;;;;4.67;4.00;;;;;18.82;53.11;99896.06;4956769;28;102386;-86
2021/10/24 04:09:15;;;;;;;;;8.33;3.67;;;;;18.81;53.02;99889.75;4951131;28;103606;-85
2021/10/24 04:11:43;;;;;;;;;5.00;4.00;;;;;18.81;53.20;99894.38;4949207;28;102240;-86
2021/10/24 04:14:10;;;;;;;;;4.00;3.00;;;;;18.80;53.00;99888.06;4949508;28;104006;-86
2021/10/24 04:16:37;;;;;;;;;5.00;5.00;;;;;18.79;53.06;99880.03;4961706;28;102430;-86
2021/10/24 04:19:04;;;;;;;;;5.00;5.00;;;;;18.79;52.85;99891.00;4954312;28;102191;-87
2021/10/24 04:21:31;;;;;;;;;5.33;4.00;;;;;18.78;52.82;99881.94;4954831;28;102425;-86
2021/10/24 04:23:58;;;;;;;;;5.00;4.00;;;;;18.78;52.96;99892.91;4946872;28;109522;-86
2021/10/24 04:26:25;;;;;;;;;4.00;4.00;;;;;18.77;52.69;99898.63;4950668;28;102382;-86
2021/10/24 04:28:52;;;;;;;;;6.00;5.00;;;;;18.77;52.66;99895.88;4946690;28;102293;-86
2021/10/24 04:31:19;;;;;;;;;4.00;4.00;;;;;18.76;52.45;99897.78;4943496;28;102840;-86
2021/10/24 04:33:46;;;;;;;;;4.00;4.00;;;;;18.77;52.58;99898.63;4946454;28;104012;-86
2021/10/24 04:36:13;;;;;;;;;4.67;4.00;;;;;18.76;52.58;99892.31;4954589;28;103494;-86
2021/10/24 04:38:40;;;;;;;;;4.00;3.00;;;;;18.76;52.84;99895.03;4948601;28;104025;-86
2021/10/24 04:41:07;;;;;;;;;3.00;3.00;;;;;18.75;52.59;99896.09;4946434;28;102881;-86
2021/10/24 04:43:34;;;;;;;;;4.00;4.00;;;;;18.75;52.60;99906.22;4948561;28;104154;-87
2021/10/24 04:46:02;;;;;;;;;4.00;4.00;;;;;18.76;52.42;99902.41;4942286;28;103962;-87
2021/10/24 04:48:29;;;;;;;;;4.00;4.00;;;;;18.77;52.42;99909.59;4956300;28;102620;-86
2021/10/24 04:50:56;;;;;;;;;5.00;3.33;;;;;18.73;52.22;99902.88;4951402;28;102564;-86
2021/10/24 04:53:23;;;;;;;;;3.33;3.33;;;;;18.75;52.46;99900.72;4943362;28;104226;-86
2021/10/24 04:55:51;;;;;;;;;2.67;2.67;;;;;18.73;52.49;99908.34;4944078;28;103734;-86
2021/10/24 04:58:18;;;;;;;;;5.00;5.00;;;;;18.73;52.08;99909.19;4939161;28;103104;-86
2021/10/24 05:00:44;;;;;;;;;6.00;4.00;;;;;18.70;52.50;99913.19;4953702;28;102418;-86
2021/10/24 05:03:11;;;;;;;;;3.00;3.00;;;;;18.70;52.44;99918.69;4930415;28;104307;-86
2021/10/24 05:05:38;;;;;;;;;4.00;4.00;;;;;18.69;52.27;99917.00;4941274;28;102907;-86
2021/10/24 05:08:05;;;;;;;;;3.33;3.00;;;;;18.70;52.55;99920.59;4941334;28;102264;-88
2021/10/24 05:10:32;;;;;;;;;5.00;4.67;;;;;18.69;52.33;99919.75;4911603;28;102351;-87
2021/10/24 05:12:59;;;;;;;;;4.00;4.00;;;;;18.68;52.45;99928.19;4943381;28;105703;-86
2021/10/24 05:15:26;;;;;;;;;4.00;3.00;;;;;18.69;51.93;99930.69;4926742;28;102415;-86
2021/10/24 05:17:53;;;;;;;;;4.00;3.67;;;;;18.69;52.23;99949.03;4941450;28;102686;-87
2021/10/24 05:20:21;;;;;;;;;5.67;4.00;;;;;18.69;52.36;99938.06;4939489;28;102924;-87
2021/10/24 05:22:48;;;;;;;;;6.00;3.00;;;;;18.69;52.35;99935.34;4945069;28;103831;-86
2021/10/24 05:25:18;;;;;;;;;5.00;4.00;;;;;18.68;52.55;99941.91;4946647;28;102329;-87
2021/10/24 05:27:48;;;;;;;;;4.00;4.00;;;;;18.68;52.55;99945.47;4925568;28;102543;-87
2021/10/24 05:30:15;;;;;;;;;6.00;5.00;;;;;18.67;52.34;99949.28;4953947;28;103926;-87
2021/10/24 05:32:42;;;;;;;;;4.00;4.00;;;;;18.66;52.17;99955.81;4958959;28;104024;-86
2021/10/24 05:35:09;;;;;;;;;4.00;3.00;;;;;18.66;52.32;99957.72;4921968;28;102166;-86
2021/10/24 05:37:36;;;;;;;;;4.00;3.67;;;;;18.65;52.22;99954.13;4942608;28;103380;-87
2021/10/24 05:40:03;;;;;;;;;3.00;3.00;;;;;18.65;51.96;99959.59;4966366;28;104121;-88
2021/10/24 05:42:31;;;;;;;;;6.00;6.00;;;;;18.66;52.02;99963.19;4949878;28;108819;-86
2021/10/24 05:44:58;;;;;;;;;5.00;3.33;;;;;18.65;52.51;99966.97;4921656;28;102482;-87
2021/10/24 05:47:25;;;;;;;;;5.67;4.00;;;;;18.64;52.53;99974.34;4940551;28;102617;-86
2021/10/24 05:49:53;;;;;;;;;4.00;3.33;;;;;18.64;52.55;99959.84;4949661;28;105824;-87
2021/10/24 05:52:20;;;;;;;;;3.00;2.00;;;;;18.65;52.24;99975.19;4928985;28;104082;-87
2021/10/24 05:54:47;;;;;;;;;4.33;3.33;;;;;18.64;52.67;99970.81;4921821;28;102857;-87
2021/10/24 05:57:14;;;;;;;;;6.00;5.00;;;;;18.64;52.29;99971.63;4949378;28;102403;-87
2021/10/24 05:59:41;;;;;;;;;7.00;6.00;;;;;18.62;52.13;99976.50;4950381;28;102403;-87
2021/10/24 06:02:11;;;;;;;;;5.00;4.00;;;;;18.64;52.00;99974.34;4952657;28;104423;-86
2021/10/24 06:04:38;;;;;;;;;5.33;5.00;;;;;18.62;52.02;99987.44;4948786;28;102238;-86
2021/10/24 06:07:05;;;;;;;;;5.00;4.33;;;;;18.63;52.09;99986.41;4956255;28;102476;-86
2021/10/24 06:09:53;;;;;;;;;7.00;7.00;;;;;18.62;51.79;99990.19;4950704;28;102137;-87
2021/10/24 06:15:20;;;;;;;;;10.67;8.00;;;;;18.61;52.44;99991.25;4951248;28;102417;-86
2021/10/24 06:17:47;;;;;;;;;11.00;9.00;;;;;18.62;52.03;99995.66;4959171;28;102693;-87
2021/10/24 06:20:20;;;;;;;;;11.00;10.00;;;;;18.62;52.53;99989.34;4953931;28;102187;-86
2021/10/24 06:22:47;;;;;;;;;8.33;8.00;;;;;18.61;52.17;100001.34;4958236;28;104291;-86
2021/10/24 06:25:15;;;;;;;;;11.00;9.00;;;;;18.61;52.05;100001.34;4942951;28;102388;-86
2021/10/24 06:27:42;;;;;;;;;12.00;10.33;;;;;18.60;52.06;99997.78;4942007;28;102196;-86
2021/10/24 06:30:11;;;;;;;;;10.33;10.00;;;;;18.60;51.79;99996.94;4959610;28;102330;-86
2021/10/24 06:32:38;;;;;;;;;7.33;7.33;;;;;18.61;52.03;100004.94;4955022;28;104128;-87
2021/10/24 06:35:05;;;;;;;;;9.33;8.00;;;;;18.60;52.13;100008.72;4956745;28;103440;-87
2021/10/24 06:37:39;;;;;;;;;8.67;8.67;;;;;18.60;52.26;100008.72;4957425;28;102618;-86
2021/10/24 06:40:07;;;;;;;;;9.00;9.00;;;;;18.60;51.86;100011.47;4937310;28;102299;-85
2021/10/24 06:42:35;;;;;;;;;11.33;10.67;;;;;18.60;52.34;100010.63;4953536;28;105644;-87
2021/10/24 06:45:03;;;;;;;;;10.33;10.00;;;;;18.60;52.00;100013.38;4956827;28;102432;-87
2021/10/24 06:47:30;;;;;;;;;13.33;11.67;;;;;18.59;51.87;100018.03;4948834;28;102624;-88
2021/10/24 06:49:57;;;;;;;;;12.00;11.33;;;;;18.59;52.24;100023.50;4958766;28;103833;-86
2021/10/24 06:52:24;;;;;;;;;12.33;11.00;;;;;18.59;52.37;100025.41;4958806;28;104098;-87
2021/10/24 06:54:51;;;;;;;;;12.33;11.33;;;;;18.58;52.35;100032.78;4951572;28;103291;-87
2021/10/24 06:57:21;;;;;;;;;12.67;9.00;;;;;18.59;52.35;100028.16;4951948;28;102880;-87
2021/10/24 06:59:48;;;;;;;;;12.00;10.67;;;;;18.57;52.46;100025.63;4955377;28;102571;-87
2021/10/24 07:02:19;;;;;;;;;13.67;12.00;;;;;18.57;52.58;100031.09;4950578;28;104542;-88
2021/10/24 07:04:47;;;;;;;;;13.67;10.00;;;;;18.58;52.42;100040.16;4950396;28;102120;-87
2021/10/24 07:07:14;;;;;;;;;10.67;10.00;;;;;18.55;52.43;100033.19;4957130;28;102558;-87
2021/10/24 07:09:41;;;;;;;;;14.50;13.25;;;;;18.56;52.11;100043.09;4953114;28;102525;-88
2021/10/24 07:12:10;;;;;;;;;18.25;15.00;;;;;18.56;52.19;100048.59;4947875;28;104077;-88
2021/10/24 07:14:38;;;;;;;;;15.75;13.25;;;;;18.57;52.66;100046.69;4952882;28;103450;-91
2021/10/24 07:17:05;;;;;;;;;14.00;11.75;;;;;18.57;52.31;100047.53;4948520;28;102169;-86
2021/10/24 07:19:32;;;;;;;;;15.33;15.33;;;;;18.56;52.69;100045.00;4961172;28;102405;-87
2021/10/24 07:21:59;;;;;;;;;15.33;14.00;;;;;18.56;52.86;100045.84;4954316;28;104002;-87
2021/10/24 07:24:26;;;;;;;;;12.50;11.00;;;;;18.56;53.00;100051.31;4951314;28;102659;-86
2021/10/24 07:26:53;;;;;;;;;17.50;13.25;;;;;18.56;52.73;100051.31;4945082;28;102317;-86
2021/10/24 07:29:20;;;;;;;;;16.50;12.50;;;;;18.57;52.79;100058.50;4950211;28;102520;-86
2021/10/24 07:31:47;;;;;;;;;15.25;13.25;;;;;18.57;52.94;100058.50;4950142;28;104227;-85
2021/10/24 07:34:14;;;;;;;;;12.67;12.00;;;;;18.57;53.12;100057.66;4954078;28;109245;-87
2021/10/24 07:36:41;;;;;;;;;14.75;13.00;;;;;18.57;53.17;100058.50;4947502;28;102476;-87
2021/10/24 07:39:08;;;;;;;;;15.50;12.00;;;;;18.57;53.13;100063.13;4954655;28;102643;-87
2021/10/24 07:41:35;;;;;;;;;14.00;14.00;;;;;18.56;53.35;100062.28;4950358;28;104159;-88
2021/10/24 07:44:04;;;;;;;;;16.50;14.75;;;;;18.53;53.11;100062.72;4955933;28;102379;-87
2021/10/24 07:46:31;;;;;;;;;18.50;15.50;;;;;18.50;52.94;100060.41;4939656;28;103955;-88
2021/10/24 07:48:58;;;;;;;;;16.75;12.25;;;;;18.50;53.16;100057.66;4946956;28;103173;-88
2021/10/24 07:51:25;;;;;;;;;18.50;15.50;;;;;18.49;52.47;100055.13;4952270;28;104052;-89
2021/10/24 07:53:53;;;;;;;;;15.50;14.25;;;;;18.49;52.86;100060.59;4952756;28;102578;-88
2021/10/24 07:56:21;;;;;;;;;9.50;9.50;;;;;18.46;53.01;100059.13;4950112;28;112526;-87
2021/10/24 07:58:51;;;;;;;;;16.50;14.75;;;;;18.47;52.99;100057.22;4948589;28;102477;-88
2021/10/24 08:01:19;;;;;;;;;19.33;15.67;;;;;18.46;52.71;100067.34;4956092;28;104082;-88
2021/10/24 08:03:48;;;;;;;;;15.75;14.25;;;;;18.44;52.86;100074.94;4949549;28;102567;-88
2021/10/24 08:06:16;;;;;;;;;14.25;12.25;;;;;18.45;52.74;100071.16;4933505;28;103097;-88
2021/10/24 08:08:43;;;;;;;;;13.50;13.00;;;;;18.43;52.86;100075.16;4961160;28;102674;-89
2021/10/24 08:11:11;;;;;;;;;19.75;16.50;;;;;18.42;52.38;100071.56;4935241;28;112431;-88
2021/10/24 08:13:38;;;;;;;;;13.50;12.50;;;;;18.42;52.32;100081.69;4957986;28;102675;-88
2021/10/24 08:16:08;;;;;;;;;15.50;13.00;;;;;18.41;52.91;100078.13;4930199;28;102398;-89
2021/10/24 08:18:36;;;;;;;;;18.50;14.00;;;;;18.40;52.50;100078.34;4958242;28;104913;-87
2021/10/24 08:21:03;;;;;;;;;15.75;14.00;;;;;18.39;52.43;100080.22;4956216;28;108775;-88
2021/10/24 08:23:31;;;;;;;;;13.00;10.50;;;;;18.39;52.99;100084.88;4953316;28;102324;-88
2021/10/24 08:25:58;;;;;;;;;14.25;12.75;;;;;18.38;52.95;100092.22;4951377;28;103384;-88
2021/10/24 08:28:26;;;;;;;;;16.50;13.00;;;;;18.37;52.45;100084.25;4953785;28;104452;-88
2021/10/24 08:30:56;;;;;;;;;14.25;12.00;;;;;18.38;53.08;100089.50;4956186;28;104106;-88
2021/10/24 08:33:23;;;;;;;;;16.75;11.25;;;;;18.38;52.50;100085.91;4954761;28;103286;-88
2021/10/24 08:35:50;;;;;;;;;15.75;15.00;;;;;18.35;52.44;100086.34;4945795;28;102038;-88
2021/10/24 08:38:17;;;;;;;;;17.33;12.33;;;;;18.37;52.16;100090.53;4953734;28;104336;-87
2021/10/24 08:40:45;;;;;;;;;12.00;11.00;;;;;18.37;52.84;100095.22;4951571;28;104035;-88
2021/10/24 08:43:17;;;;;;;;;15.25;13.00;;;;;18.37;52.28;100098.75;4913222;28;102704;-89
2021/10/24 08:45:46;;;;;;;;;16.25;14.00;;;;;18.37;52.32;100101.50;4954226;28;103545;-88
2021/10/24 08:48:15;;;;;;;;;11.67;11.67;;;;;18.37;52.17;100092.47;4942766;28;103675;-88
2021/10/24 08:50:47;;;;;;;;;16.67;14.00;;;;;18.36;52.10;100099.84;4940441;28;103387;-89
2021/10/24 08:53:17;;;;;;;;;16.00;14.00;;;;;18.35;52.93;100087.19;4941360;28;102344;-87
2021/10/24 08:55:45;;;;;;;;;11.00;10.50;;;;;18.35;52.90;100092.66;4939919;28;102413;-89
2021/10/24 08:58:13;;;;;;;;;14.67;11.00;;;;;18.35;52.41;100098.16;4954221;28;103119;-88
2021/10/24 09:00:45;;;;;;;;;13.67;11.33;;;;;18.34;52.77;100101.94;4930448;28;104241;-88
2021/10/24 09:03:12;;;;;;;;;13.67;11.33;;;;;18.35;52.03;100098.16;4959671;28;102200;-88
2021/10/24 09:05:40;;;;;;;;;10.00;9.00;;;;;18.35;52.20;100102.78;4940878;28;102427;-88
2021/10/24 09:08:17;;;;;;;;;13.50;12.25;;;;;18.34;52.31;100101.94;4954210;28;104780;-87
2021/10/24 09:10:59;;;;;;;;;12.00;12.00;;;;;18.34;52.49;100095.63;4954342;28;104262;-86
2021/10/24 09:13:28;;;;;;;;;13.00;11.00;;;;;18.34;52.26;100101.09;4945395;28;102501;-87
2021/10/24 09:16:03;;;;;;;;;16.00;11.00;;;;;18.32;52.72;100101.31;4947391;28;104525;-88
2021/10/24 09:18:33;;;;;;;;;12.00;10.33;;;;;18.32;52.11;100098.59;4949619;28;102262;-89
2021/10/24 09:21:16;;;;;;;;;15.25;11.00;;;;;18.31;52.70;100091.41;4949074;28;104293;-88
2021/10/24 09:23:46;;;;;;;;;14.00;12.00;;;;;18.30;52.06;100095.22;4952479;28;102402;-88
2021/10/24 09:26:26;;;;;;;;;13.00;10.00;;;;;18.29;52.27;100099.84;4954493;28;102243;-91
2021/10/24 09:29:06;;;;;;;;;9.67;9.67;;;;;18.32;52.85;100092.28;4954166;28;102635;-85
2021/10/24 09:31:41;;;;;;;;;12.67;11.67;;;;;18.31;52.37;100096.06;4940884;28;109881;-87
2021/10/24 09:34:20;;;;;;;;;11.33;9.33;;;;;18.28;52.95;100089.13;4943427;28;102224;-88
2021/10/24 09:37:00;;;;;;;;;16.00;13.00;;;;;18.28;52.25;100089.94;4951519;28;102255;-89
2021/10/24 09:39:29;;;;;;;;;10.67;9.67;;;;;18.30;52.23;100089.72;4948864;28;103347;-88
2021/10/24 09:42:18;;;;;;;;;11.33;9.00;;;;;18.29;52.88;100093.53;4956026;28;104088;-87
2021/10/24 09:45:05;;;;;;;;;10.50;9.00;;;;;18.27;52.48;100095.66;4945218;28;102813;-83
2021/10/24 09:47:39;;;;;;;;;9.33;8.67;;;;;18.30;52.83;100092.47;4941027;28;102909;-84
2021/10/24 09:50:08;;;;;;;;;11.67;10.00;;;;;18.31;52.27;100096.91;4949512;28;102672;-84
2021/10/24 09:52:39;;;;;;;;;12.33;11.00;;;;;18.29;52.71;100090.78;4921815;28;108396;-84
2021/10/24 09:55:17;;;;;;;;;12.00;11.00;;;;;18.28;52.57;100091.88;4954551;28;102568;-84
2021/10/24 09:57:45;;;;;;;;;12.67;10.67;;;;;18.26;52.84;100096.69;4955263;28;102408;-87
2021/10/24 10:00:13;;;;;;;;;13.00;10.00;;;;;18.23;52.23;100095.25;4957604;28;102614;-85
2021/10/24 10:02:41;;;;;;;;;11.33;11.00;;;;;18.21;52.09;100088.28;4930324;28;104283;-84
2021/10/24 10:05:08;;;;;;;;;11.50;10.50;;;;;18.21;51.87;100093.75;4921467;28;103095;-86
2021/10/24 10:07:35;;;;;;;;;15.33;13.67;;;;;18.19;52.06;100088.47;4941286;28;103443;-85
2021/10/24 10:10:02;;;;;;;;;11.25;9.00;;;;;18.20;52.19;100095.66;4957464;28;102606;-85
2021/10/24 10:12:34;;;;;;;;;9.67;7.00;;;;;18.18;51.53;100088.72;4948167;28;104104;-86
2021/10/24 10:15:01;;;;;;;;;13.67;11.67;;;;;18.22;51.09;100087.22;4929056;28;103117;-89
2021/10/24 10:17:28;;;;;;;;;14.33;12.67;;;;;18.28;51.04;100091.88;4919054;28;102354;-87
2021/10/24 10:19:55;;;;;;;;;14.25;11.50;;;;;18.34;50.75;100082.75;4925381;28;102309;-84
2021/10/24 10:22:22;;;;;;;;;15.00;12.00;;;;;18.46;51.19;100082.97;4939360;28;104338;-83
2021/10/24 10:25:09;;;;;;;;;12.00;11.00;;;;;18.55;51.12;100085.25;4949877;28;102609;-86
2021/10/24 10:27:41;;;;;;;;;12.67;10.33;;;;;18.63;50.25;100087.78;4943559;28;103702;-84
2021/10/24 10:30:16;;;;;;;;;8.50;5.75;;;;;18.68;50.45;100077.00;4922734;28;104555;-89
2021/10/24 10:32:46;;;;;;;;;11.67;10.67;;;;;18.79;50.43;100080.94;4944665;28;104134;-91
2021/10/24 10:35:14;;;;;;;;;10.00;7.33;;;;;18.79;49.72;100083.69;4953230;28;102957;-90
2021/10/24 10:37:55;;;;;;;;;12.00;10.67;;;;;18.71;49.87;100082.03;4944903;28;102299;-91
2021/10/24 10:40:33;;;;;;;;;10.33;10.33;;;;;18.64;49.85;100083.13;4940382;28;102701;-91
2021/10/24 10:43:20;;;;;;;;;10.00;9.00;;;;;18.56;49.73;100078.72;4926982;28;104100;-88
2021/10/24 10:45:48;;;;;;;;;17.33;11.33;;;;;18.46;49.56;100070.06;4945764;28;102504;-87
2021/10/24 10:48:30;;;;;;;;;9.00;9.00;;;;;18.40;48.16;100068.22;4950142;28;102605;-86
2021/10/24 10:51:16;;;;;;;;;8.00;7.33;;;;;18.35;48.16;100068.03;4952615;28;102664;-86
2021/10/24 10:53:46;;;;;;;;;10.67;9.00;;;;;18.32;49.55;100075.84;4952277;28;108317;-87
2021/10/24 10:56:20;;;;;;;;;11.33;9.67;;;;;18.27;48.88;100066.38;4953608;28;102342;-86
2021/10/24 10:58:48;;;;;;;;;8.00;8.00;;;;;18.24;50.17;100053.09;4935029;28;102386;-86
2021/10/24 11:01:23;;;;;;;;;9.33;9.00;;;;;18.23;49.82;100061.53;4956237;28;102444;-86
2021/10/24 11:03:52;;;;;;;;;8.67;7.33;;;;;18.20;49.76;100061.94;4952317;28;105326;-87
2021/10/24 11:06:22;;;;;;;;;11.00;10.33;;;;;18.17;49.91;100063.22;4928802;28;102666;-88
2021/10/24 11:08:50;;;;;;;;;11.33;11.00;;;;;18.15;49.53;100064.47;4948576;28;102640;-85
2021/10/24 11:11:45;;;;;;;;;12.25;9.75;;;;;18.14;47.82;100052.72;4932431;28;102452;-87
2021/10/24 11:14:15;;;;;;;;;8.00;7.00;;;;;18.11;48.86;100050.41;4944593;28;108692;-87
2021/10/24 11:16:53;;;;;;;;;12.00;9.33;;;;;18.11;49.65;100047.66;4954327;28;102219;-85
2021/10/24 11:19:27;;;;;;;;;10.00;9.33;;;;;18.09;49.52;100041.56;4952892;28;102430;-85
2021/10/24 11:22:00;;;;;;;;;11.00;8.00;;;;;18.07;49.42;100046.41;4934696;28;102547;-85
2021/10/24 11:24:37;;;;;;;;;12.00;9.00;;;;;18.07;49.85;100045.56;4950526;28;103914;-85
2021/10/24 11:27:09;;;;;;;;;10.67;9.67;;;;;18.05;49.67;100039.47;4933411;28;102864;-85